createdAt,value
2023-01-23T00:04:15.528Z,0.42
2023-01-23T00:09:36.113Z,0.47
2023-01-23T00:14:56.877Z,0.41
2023-01-23T00:20:17.934Z,0.40
2023-01-23T00:25:39.258Z,0.40
2023-01-23T00:31:10.338Z,0.46
2023-01-23T00:36:34.613Z,0.57
2023-01-23T00:41:55.819Z,0.59
2023-01-23T00:47:18.350Z,0.68
2023-01-23T00:52:39.203Z,0.77
2023-01-23T00:58:00.339Z,0.70
2023-01-23T01:03:21.514Z,0.57
2023-01-23T01:08:42.996Z,0.47
2023-01-23T01:14:05.156Z,0.49
2023-01-23T01:19:28.256Z,0.42
2023-01-23T01:24:49.152Z,0.26
2023-01-23T01:30:10.921Z,0.28
2023-01-23T01:35:32.470Z,0.29
2023-01-23T01:40:53.673Z,0.15
2023-01-23T01:46:23.695Z,0.06
2023-01-23T01:51:50.314Z,-0.03
2023-01-23T01:57:21.396Z,-0.07
2023-01-23T02:02:55.462Z,0.02
2023-01-23T02:08:27.379Z,0.13
2023-01-23T02:13:48.090Z,0.08
2023-01-23T02:19:35.820Z,0.13
2023-01-23T02:25:15.284Z,0.32
2023-01-23T02:30:40.225Z,0.39
2023-01-23T02:36:02.726Z,0.52
2023-01-23T02:41:28.777Z,0.42
2023-01-23T02:46:49.717Z,0.42
2023-01-23T02:52:10.581Z,0.32
2023-01-23T02:57:31.117Z,0.29
2023-01-23T03:02:52.024Z,0.08
2023-01-23T03:08:12.956Z,-0.03
2023-01-23T03:13:33.783Z,-0.06
2023-01-23T03:18:55.227Z,-0.06
2023-01-23T03:24:16.482Z,-0.18
2023-01-23T03:29:56.112Z,-0.20
2023-01-23T03:35:18.034Z,-0.24
2023-01-23T03:40:57.598Z,-0.20
2023-01-23T03:46:19.364Z,-0.15
2023-01-23T03:51:40.208Z,-0.05
2023-01-23T03:57:00.846Z,-0.08
2023-01-23T04:02:55.081Z,-0.01
2023-01-23T04:08:16.652Z,0.15
2023-01-23T04:13:38.540Z,0.17
2023-01-23T04:18:59.267Z,0.17
2023-01-23T04:24:20.473Z,0.09
2023-01-23T04:29:42.280Z,0.11
2023-01-23T04:35:03.885Z,-0.06
2023-01-23T04:40:26.249Z,0.05
2023-01-23T04:45:52.732Z,-0.07
2023-01-23T04:51:28.953Z,0.02
2023-01-23T04:56:50.210Z,0.09
2023-01-23T05:02:12.944Z,0.13
2023-01-23T05:07:37.111Z,0.24
2023-01-23T05:13:01.335Z,0.18
2023-01-23T05:18:21.974Z,0.15
2023-01-23T05:23:42.655Z,0.16
2023-01-23T05:29:03.863Z,0.10
2023-01-23T05:34:25.609Z,-0.01
2023-01-23T05:39:46.170Z,0.07
2023-01-23T05:45:07.799Z,0.23
2023-01-23T05:50:34.546Z,0.36
2023-01-23T05:55:56.299Z,0.29
2023-01-23T06:01:18.701Z,0.27
2023-01-23T06:06:51.692Z,0.19
2023-01-23T06:12:12.924Z,0.22
2023-01-23T06:17:33.893Z,0.11
2023-01-23T06:22:55.103Z,0.15
2023-01-23T06:28:15.775Z,0.12
2023-01-23T06:33:39.008Z,0.07
2023-01-23T06:39:03.646Z,0.12
2023-01-23T06:44:38.106Z,0.19
2023-01-23T06:50:02.070Z,0.15
2023-01-23T06:55:24.894Z,0.12
2023-01-23T07:00:46.031Z,0.07
2023-01-23T07:06:24.770Z,-0.04
2023-01-23T07:11:46.102Z,-0.25
2023-01-23T07:17:07.083Z,-0.27
2023-01-23T07:22:28.894Z,-0.29
2023-01-23T07:27:49.650Z,-0.31
2023-01-23T07:33:11.984Z,-0.35
2023-01-23T07:38:33.067Z,-0.37
2023-01-23T07:43:54.098Z,-0.36
2023-01-23T07:49:15.142Z,-0.38
2023-01-23T07:54:36.143Z,-0.25
2023-01-23T07:59:58.316Z,0.20
2023-01-23T08:05:19.257Z,1.14
2023-01-23T08:10:39.939Z,0.62
2023-01-23T08:16:00.760Z,0.32
2023-01-23T08:21:21.932Z,0.32
2023-01-23T08:26:43.469Z,0.22
2023-01-23T08:32:04.732Z,0.18
2023-01-23T08:37:26.020Z,0.13
2023-01-23T08:42:46.897Z,0.07
2023-01-23T08:48:08.842Z,0.04
2023-01-23T08:53:30.172Z,0.05
2023-01-23T08:58:51.840Z,-0.04
2023-01-23T09:04:12.948Z,-0.03
2023-01-23T09:09:33.874Z,0.00
2023-01-23T09:14:54.811Z,0.02
2023-01-23T09:20:16.148Z,0.13
2023-01-23T09:25:38.081Z,0.10
2023-01-23T09:31:03.966Z,0.22
2023-01-23T09:36:37.696Z,0.23
2023-01-23T09:42:08.455Z,0.33
2023-01-23T09:47:39.091Z,0.33
2023-01-23T09:53:08.495Z,0.28
2023-01-23T09:58:43.606Z,0.37
2023-01-23T10:04:05.434Z,0.45
2023-01-23T10:09:37.816Z,0.38
2023-01-23T10:15:07.053Z,0.39
2023-01-23T10:20:56.720Z,0.36
2023-01-23T10:26:31.730Z,0.33
2023-01-23T10:31:57.319Z,0.38
2023-01-23T10:37:42.853Z,0.33
2023-01-23T10:43:04.265Z,0.38
2023-01-23T10:48:27.992Z,0.45
2023-01-23T10:54:04.563Z,0.57
2023-01-23T10:59:29.946Z,0.57
2023-01-23T11:04:54.526Z,0.56
2023-01-23T11:10:23.320Z,0.62
2023-01-23T11:15:48.975Z,0.62
2023-01-23T11:21:33.202Z,0.60
2023-01-23T11:27:20.977Z,0.57
2023-01-23T11:32:55.232Z,0.63
2023-01-23T11:38:27.226Z,0.67
2023-01-23T11:43:50.799Z,0.67
2023-01-23T11:49:45.547Z,0.68
2023-01-23T11:55:12.431Z,0.71
2023-01-23T12:01:07.920Z,0.79
2023-01-23T12:06:47.580Z,0.81
2023-01-23T12:12:42.930Z,0.83
2023-01-23T12:18:03.913Z,0.85
2023-01-23T12:23:49.445Z,1.17
2023-01-23T12:29:22.361Z,1.01
2023-01-23T12:34:49.128Z,1.00
2023-01-23T12:40:38.672Z,0.90
2023-01-23T12:46:07.492Z,0.82
2023-01-23T12:51:39.211Z,0.84
2023-01-23T12:57:02.008Z,1.09
2023-01-23T13:02:39.092Z,1.54
2023-01-23T13:08:23.205Z,1.58
2023-01-23T13:13:46.561Z,1.45
2023-01-23T13:20:05.792Z,1.35
2023-01-23T13:25:26.557Z,1.20
2023-01-23T13:31:00.284Z,1.14
2023-01-23T13:36:26.058Z,1.10
2023-01-23T13:42:09.233Z,1.11
2023-01-23T14:22:05.594Z,1.08
2023-01-23T14:27:54.346Z,0.97
2023-01-23T14:33:18.202Z,1.06
2023-01-23T14:38:39.151Z,1.06
2023-01-23T14:44:00.892Z,1.13
2023-01-23T14:49:29.814Z,0.98
2023-01-23T14:54:54.085Z,0.87
2023-01-23T15:00:19.296Z,0.93
2023-01-23T15:05:41.754Z,0.98
2023-01-23T15:11:04.677Z,1.00
2023-01-23T15:16:34.227Z,0.99
2023-01-23T15:22:07.466Z,0.93
2023-01-23T15:27:35.246Z,0.95
2023-01-23T15:33:07.022Z,0.80
2023-01-23T15:38:28.970Z,0.78
2023-01-23T15:43:49.914Z,0.83
2023-01-23T15:49:23.671Z,0.78
2023-01-23T15:54:46.512Z,0.75
2023-01-23T16:00:25.116Z,1.25
2023-01-23T16:05:46.093Z,1.15
2023-01-23T16:11:06.999Z,1.04
2023-01-23T16:16:28.323Z,1.03
2023-01-23T16:22:03.092Z,0.99
2023-01-23T16:27:27.820Z,0.93
2023-01-23T16:32:49.494Z,0.86
2023-01-23T16:38:29.758Z,0.78
2023-01-23T16:43:50.772Z,0.76
2023-01-23T16:49:12.926Z,0.69
2023-01-23T16:54:35.473Z,0.66
2023-01-23T16:59:56.613Z,0.65
2023-01-23T17:05:18.095Z,0.68
2023-01-23T17:10:46.143Z,0.81
2023-01-23T17:16:18.753Z,0.76
2023-01-23T17:21:47.847Z,0.78
2023-01-23T17:27:08.790Z,0.84
2023-01-23T17:32:35.453Z,0.76
2023-01-23T17:37:58.002Z,1.31
2023-01-23T17:43:21.510Z,1.16
2023-01-23T17:48:42.392Z,1.04
2023-01-23T17:54:03.099Z,0.91
2023-01-23T17:59:23.711Z,0.80
2023-01-23T18:04:44.390Z,0.79
2023-01-23T18:10:06.877Z,0.73
2023-01-23T18:15:54.034Z,0.72
2023-01-23T18:21:18.005Z,0.66
2023-01-23T18:26:50.938Z,0.64
2023-01-23T18:32:24.298Z,0.65
2023-01-23T18:37:53.993Z,0.62
2023-01-23T18:43:35.614Z,0.69
2023-01-23T18:48:56.874Z,0.70
2023-01-23T18:54:50.278Z,0.62
2023-01-23T19:00:20.052Z,0.64
2023-01-23T19:05:41.319Z,0.70
2023-01-23T19:11:14.830Z,0.69
2023-01-23T19:16:43.437Z,0.68
2023-01-23T19:22:12.668Z,0.75
2023-01-23T19:27:34.605Z,0.76
2023-01-23T19:32:55.515Z,0.72
2023-01-23T19:38:16.180Z,0.71
2023-01-23T19:43:38.954Z,0.70
2023-01-23T19:49:02.233Z,0.74
2023-01-23T19:54:24.479Z,0.74
2023-01-23T19:59:45.063Z,0.70
2023-01-23T20:05:06.182Z,0.68
2023-01-23T20:10:26.926Z,0.74
2023-01-23T20:15:50.059Z,0.78
2023-01-23T20:21:11.283Z,1.15
2023-01-23T20:26:32.057Z,0.99
2023-01-23T20:31:57.431Z,0.79
2023-01-23T20:37:18.376Z,0.75
2023-01-23T20:42:40.680Z,0.78
2023-01-23T20:48:02.004Z,0.82
2023-01-23T20:53:34.903Z,0.83
2023-01-23T20:59:15.255Z,0.72
2023-01-23T21:04:36.956Z,0.70
2023-01-23T21:09:57.773Z,0.68
2023-01-23T21:15:18.605Z,0.63
2023-01-23T21:20:40.119Z,0.59
2023-01-23T21:26:02.761Z,0.56
2023-01-23T21:31:26.918Z,0.52
2023-01-23T21:36:48.235Z,0.50
2023-01-23T21:42:09.207Z,0.58
2023-01-23T21:47:30.009Z,0.60
2023-01-23T21:52:50.704Z,0.57
2023-01-23T21:58:11.404Z,0.51
2023-01-23T22:03:35.853Z,0.45
2023-01-23T22:08:57.790Z,0.40
2023-01-23T22:14:19.297Z,0.35
2023-01-23T22:19:40.087Z,0.36
2023-01-23T22:25:00.958Z,0.32
2023-01-23T22:30:21.706Z,0.28
2023-01-23T22:35:43.392Z,0.29
2023-01-23T22:41:06.061Z,0.26
2023-01-23T22:46:27.924Z,0.29
2023-01-23T22:51:49.068Z,0.27
2023-01-23T22:57:10.017Z,0.23
2023-01-23T23:02:31.457Z,0.20
2023-01-23T23:07:52.332Z,0.18
2023-01-23T23:13:13.093Z,0.18
2023-01-23T23:18:34.139Z,0.20
2023-01-23T23:23:59.967Z,0.28
2023-01-23T23:29:20.998Z,0.29
2023-01-23T23:34:41.536Z,0.33
2023-01-23T23:40:02.465Z,0.37
2023-01-23T23:45:23.627Z,0.37
2023-01-23T23:50:44.618Z,0.34
2023-01-23T23:56:06.197Z,0.30
